Latest Coastal Weather Observations for Adelaide Airport

IDS60701

Issued at 7:01 pm CST Monday 6 July 2015 (issued every 10 minutes, with the page automatically refreshed every 10 minutes)

About coastal observations | Map of coastal stations | Coastal observations for SA | Marine services | Other Formats
Station Details ID: 023034 Name: ADELAIDE AIRPORT Lat: -34.95 Lon: 138.52 Height: 2.0 m
Data from the previous 72 hours. | See also: Recent months at Adelaide Airport
Date/Time
CST
Temp

°C
Wind Pressure Rain
since 9am
mm
Weather Cloud Vis
km
Sea
Height
m
Swell
Dir
 
Speed
knots
Gust
knots
hPa Trend Height
m
Period
s
Dir
06/06:30pm 13.0 WNW 7 9 1018.1 - 1.8 - Mostly clear 10 - - - -
06/06:00pm 13.0 W 10 13 1017.8 R 1.8 Fine Mostly clear 25 - - - -
06/05:30pm 12.9 W 9 12 1017.6 - 1.8 - Mostly clear 10 - - - -
06/05:00pm 13.1 WNW 9 12 1017.3 - 1.8 - Mostly clear 10 - - - -
06/04:30pm 12.7 W 9 12 1017.1 - 1.8 - Mostly clear 10 - - - -
06/04:23pm 12.5 W 11 14 1017.0 - 1.8 - Mostly clear 10 - - - -
06/04:12pm 12.5 W 10 15 1017.0 - 1.8 Showers Mostly clear 10 - - - -
06/04:00pm 13.6 WNW 9 10 1016.8 - 0.4 Showers Mostly clear 3 - - - -
06/03:30pm 14.3 W 9 12 1016.7 - 0.4 - Mostly clear 10 - - - -
06/03:00pm 13.5 WNW 9 10 1016.6 R 0.4 Showers Mostly cloudy 20 - - - -
06/02:30pm 13.8 NW 11 15 1016.4 - 0.4 - Mostly clear 10 - - - -
06/02:00pm 13.3 NW 12 16 1016.4 - 0.4 - Mostly clear 10 - - - -
06/01:30pm 14.1 WNW 13 18 1016.6 - 0.0 - Mostly clear 10 - - - -
06/01:00pm 14.6 WNW 14 18 1016.7 - 0.0 - Mostly clear 10 - - - -
06/12:30pm 14.4 WNW 15 19 1016.8 - 0.0 - Mostly clear 10 - - - -
06/12:00pm 14.9 WNW 13 16 1017.0 R 0.0 Distant precip. Partly cloudy 25 - - - -
06/11:30am 14.9 WNW 12 16 1017.2 - 0.0 - Mostly clear 10 - - - -
06/11:00am 14.8 WNW 13 16 1017.3 - 0.0 - Mostly clear 10 - - - -
06/10:00am 14.1 WNW 10 14 1017.0 - 0.0 - Mostly clear 10 - - - -
06/09:00am 12.7 ENE 5 6 1016.6 R 5.0 Haze Mostly clear 15 - - - -
06/08:30am 10.8 ENE 4 6 1016.1 - 5.0 - Mostly clear 10 - - - -
06/07:30am 10.6 NE 7 9 1015.6 - 4.8 - Mostly clear 10 - - - -
06/07:00am 10.3 ENE 9 10 1015.4 - 4.8 - Mostly clear 10 - - - -
06/06:30am 10.7 ENE 6 8 1015.4 - 4.8 - Partly cloudy 10 - - - -
06/06:00am 10.4 NNE 7 9 1015.3 F 4.8 Fine Mostly cloudy 30 - - - -
06/05:30am 10.4 NE 9 11 1015.3 - 4.8 - Partly cloudy 10 - - - -
06/05:00am 10.2 NNE 10 16 1015.3 - 4.8 - Partly cloudy 5 - - - -
06/04:30am 10.3 E 7 9 1015.5 - 2.8 - Partly cloudy 10 - - - -
06/04:00am 10.4 ENE 7 9 1015.2 - 2.8 - Mostly clear 10 - - - -
06/03:30am 10.7 ENE 5 6 1015.9 - 1.8 - Partly cloudy 10 - - - -
06/03:00am 11.8 NNW 7 9 1015.9 R 1.0 Rain Mostly cloudy 15 - - - -
06/02:30am 12.7 NW 11 15 1016.2 - 0.0 - Partly cloudy 10 - - - -
06/02:00am 12.4 N 12 16 1015.2 - 0.0 - Partly cloudy 10 - - - -
06/01:00am 13.0 N 14 18 1015.3 - 0.0 - Partly cloudy 10 - - - -
06/12:30am 12.8 N 13 16 1015.6 - 0.0 - Partly cloudy 10 - - - -
 
Date/Time
CST
Temp

°C
Wind Pressure Rain
since 9am
mm
Weather Cloud Vis
km
Sea
Height
m
Swell
Dir
 
Speed
knots
Gust
knots
hPa Trend Height
m
Period
s
Dir
05/11:30pm 13.2 NNE 10 14 1016.4 - 0.0 - Partly cloudy 10 - - - -
05/11:00pm 12.6 NNE 10 15 1016.4 - 0.0 - Partly cloudy 10 - - - -
05/10:30pm 12.5 NNE 11 14 1016.7 - 0.0 - Cloudy 10 - - - -
05/10:00pm 13.1 NNE 12 16 1016.8 - 0.0 - Partly cloudy 10 - - - -
05/09:30pm 13.4 NNE 11 14 1017.0 - 0.0 - Partly cloudy 10 - - - -
05/09:00pm 13.3 NNE 10 13 1017.1 F 0.0 Recent precip. Mostly cloudy 35 - - - -
05/08:30pm 13.7 NNE 9 12 1017.1 - 0.0 - Partly cloudy 10 - - - -
05/08:00pm 14.1 NNE 10 13 1017.1 - 0.0 - Cloudy 10 - - - -
05/07:30pm 14.3 NNE 9 11 1017.1 - 0.0 - Partly cloudy 10 - - - -
05/07:00pm 14.6 NNE 9 12 1017.1 - 0.0 - Cloudy 10 - - - -
05/06:30pm 15.4 N 7 10 1017.1 - 0.0 - Cloudy 10 - - - -
05/06:00pm 15.5 N 7 8 1016.9 F 0.0 Fine Mostly cloudy 40 - - - -
05/05:30pm 15.7 N 8 11 1016.8 - 0.0 - Cloudy 10 - - - -
05/05:00pm 15.8 N 9 14 1016.8 - 0.0 - Cloudy 10 - - - -
05/04:30pm 16.0 N 10 14 1017.0 - 0.0 - Cloudy 10 - - - -
05/04:00pm 16.2 NNW 10 14 1017.2 - 0.0 - Partly cloudy 10 - - - -
05/03:30pm 16.6 N 11 16 1017.3 - 0.0 - Partly cloudy 10 - - - -
05/03:00pm 16.8 NNW 12 16 1017.4 F 0.0 Fine Mostly clear 40 - - - -
05/02:30pm 16.3 NNW 13 16 1017.6 - 0.0 - Partly cloudy 10 - - - -
05/02:00pm 16.4 NNW 12 15 1017.8 - 0.0 - - 10 - - - -
05/01:30pm 15.8 NNW 13 17 1018.2 - 0.0 - Partly cloudy 10 - - - -
05/01:00pm 16.1 N 13 16 1018.7 - 0.0 - - 10 - - - -
05/12:30pm 15.9 N 12 16 1019.1 - 0.0 - - 10 - - - -
05/12:00pm 15.4 N 11 15 1019.6 F 0.0 Fine Mostly clear 40 - - - -
05/11:30am 14.3 N 11 15 1020.0 - 0.0 - - 10 - - - -
05/11:00am 14.0 N 12 14 1020.5 - 0.0 - - 10 - - - -
05/10:30am 13.0 NNE 12 14 1020.7 - 0.0 - - 10 - - - -
05/10:00am 12.3 NNE 11 15 1020.9 - 0.0 - - 10 - - - -
05/09:30am 11.6 NNE 11 16 1020.8 - 0.0 - - 10 - - - -
05/09:00am 10.9 NE 8 9 1020.9 F 0.0 Fine Mostly clear 30 - - - -
05/08:30am 9.2 NE 6 7 1020.9 - 0.0 - - 10 - - - -
05/08:00am 7.8 NE 7 9 1020.8 - 0.0 - - 10 - - - -
05/07:30am 6.9 NE 7 9 1020.6 - 0.0 - - 10 - - - -
05/07:00am 7.1 NE 6 8 1020.4 - 0.0 - - 10 - - - -
05/06:30am 6.8 NE 8 9 1020.5 - 0.0 - - 10 - - - -
05/06:00am 6.1 NE 7 8 1020.3 F 0.0 Fine Mostly cloudy 35 - - - -
05/05:30am 6.4 NE 7 8 1020.2 - 0.0 - - 10 - - - -
05/05:00am 6.8 NE 8 9 1020.2 - 0.0 - - 10 - - - -
05/04:30am 7.4 NE 8 9 1020.1 - 0.0 - - 10 - - - -
05/04:00am 7.0 NE 7 8 1020.2 - 0.0 - - 10 - - - -
05/03:30am 6.8 NE 7 8 1020.4 - 0.0 - - 10 - - - -
05/03:00am 7.2 NE 7 8 1020.6 F 0.0 Fine Mostly cloudy 35 - - - -
05/02:30am 7.0 ENE 7 7 1020.7 - 0.0 - - 10 - - - -
05/02:00am 6.5 NE 6 6 1020.7 - 0.0 - - 10 - - - -
05/01:30am 7.0 NE 6 6 1020.7 - 0.0 - - 10 - - - -
05/01:00am 7.4 NE 5 7 1020.9 - 0.0 - - 10 - - - -
05/12:30am 7.2 NE 3 4 1021.4 - 0.0 - - 10 - - - -
05/12:00am 7.0 NE 6 7 1021.4 F 0.0 Fine Partly cloudy 30 - - - -
 
Date/Time
CST
Temp

°C
Wind Pressure Rain
since 9am
mm
Weather Cloud Vis
km
Sea
Height
m
Swell
Dir
 
Speed
knots
Gust
knots
hPa Trend Height
m
Period
s
Dir
04/11:30pm 7.1 NE 6 6 1021.7 - 0.0 - - 10 - - - -
04/11:00pm 8.1 NNE 6 7 1021.8 - 0.0 - - 10 - - - -
04/10:30pm 9.2 NNE 7 8 1021.6 - 0.0 - - 10 - - - -
04/10:00pm 8.4 NE 3 4 1021.7 - 0.0 - - 10 - - - -
04/09:30pm 8.8 NE 5 6 1021.7 - 0.0 - - 10 - - - -
04/09:00pm 9.0 NE 6 6 1021.7 F 0.0 Fine Clear 35 - - - -
04/08:30pm 8.7 ENE 5 6 1022.0 - 0.0 - Mostly clear 10 - - - -
04/08:00pm 9.1 NE 3 4 1022.3 - 0.0 - Mostly clear 10 - - - -
04/07:30pm 9.2 ENE 5 5 1022.1 - 0.0 - - 10 - - - -
04/07:00pm 9.5 ENE 6 7 1022.1 - 0.0 - - 10 - - - -
04/06:30pm 9.9 ENE 5 5 1022.0 - 0.0 - - 10 - - - -
04/06:00pm 11.1 CALM 0 0 1021.9 F 0.0 Fine Mostly clear 35 - - - -
04/05:30pm 12.7 N 4 4 1021.8 - 0.0 - Mostly clear 10 - - - -
04/05:00pm 14.7 N 5 7 1021.7 - 0.0 - Mostly clear 10 - - - -
04/04:30pm 15.3 NNW 5 7 1021.6 - 0.0 - Mostly clear 10 - - - -
04/04:00pm 15.8 NNW 6 8 1021.8 - 0.0 - Mostly clear 10 - - - -
04/03:30pm 16.2 N 7 9 1021.7 - 0.0 - Mostly clear 10 - - - -
04/03:00pm 15.8 NNW 8 11 1021.8 F 0.0 Fine Partly cloudy 30 - - - -
04/02:30pm 15.5 WNW 7 8 1021.9 - 0.0 - Mostly clear 10 - - - -
04/02:00pm 15.0 NW 7 9 1022.1 - 0.0 - Mostly clear 10 - - - -
04/01:30pm 14.8 WNW 5 7 1022.4 - 0.0 - Partly cloudy 10 - - - -
04/01:00pm 14.9 NNW 5 6 1022.8 - 0.0 - Partly cloudy 10 - - - -
04/12:30pm 15.4 NNW 6 8 1023.3 - 0.0 - Partly cloudy 10 - - - -
04/12:00pm 14.9 N 5 7 1023.6 F 0.0 Haze Mostly cloudy 25 - - - -
04/11:30am 14.2 NNW 6 8 1024.2 - 0.0 - Partly cloudy 10 - - - -
04/11:00am 13.6 NNE 7 9 1024.5 - 0.0 - Partly cloudy 10 - - - -
04/10:30am 13.4 NE 6 8 1024.8 - 0.0 - Partly cloudy 10 - - - -
04/10:00am 12.9 NNE 8 9 1024.8 - 0.0 - - 10 - - - -
04/09:30am 11.6 NNE 9 10 1024.9 - 0.0 - Partly cloudy 10 - - - -
04/09:00am 10.6 NE 6 8 1024.8 F 0.0 Haze Mostly cloudy 20 - - - -
04/08:30am 9.1 NE 6 7 1024.7 - 0.0 - Partly cloudy 10 - - - -
04/08:00am 8.2 NE 5 6 1024.7 - 0.0 - Cloudy 10 - - - -
04/07:30am 7.4 ENE 5 6 1024.5 - 0.0 - Mostly clear 10 - - - -
04/07:00am 6.9 E 4 5 1024.5 - 0.0 - Mostly clear 10 - - - -
04/06:30am 6.3 NNE 3 4 1024.2 - 0.0 - Partly cloudy 10 - - - -
04/06:00am 6.0 CALM 0 0 1024.1 R 0.0 Haze Mostly cloudy 15 - - - -
04/05:30am 6.5 NE 5 6 1023.7 - 0.0 - Partly cloudy 10 - - - -
04/05:00am 7.2 NNE 6 6 1023.7 - 0.0 - Mostly cloudy 10 - - - -
04/04:30am 7.3 NNE 5 6 1023.6 - 0.0 - Mostly cloudy 10 - - - -
04/04:00am 6.5 NE 2 4 1023.8 - 0.0 - Partly cloudy 10 - - - -
04/03:30am 6.1 NE 6 6 1023.9 - 0.0 - Cloudy 10 - - - -
04/03:00am 5.2 NE 4 5 1024.0 F 0.0 Haze Mostly cloudy 18 - - - -
04/02:30am 5.3 NNE 5 5 1024.1 - 0.0 - - 10 - - - -
04/02:00am 6.5 NNE 4 4 1024.4 - 0.0 - - 10 - - - -
04/01:30am 6.0 NE 4 5 1024.4 - 0.0 - - 10 - - - -
04/01:00am 6.3 NE 6 6 1024.4 - 0.0 - - 10 - - - -
04/12:30am 6.9 NE 4 4 1024.7 - 0.0 - - 10 - - - -
04/12:00am 7.6 NE 4 4 1024.9 F 0.0 Haze Mostly cloudy 15 - - - -
 
Date/Time
CST
Temp

°C
Wind Pressure Rain
since 9am
mm
Weather Cloud Vis
km
Sea
Height
m
Swell
Dir
 
Speed
knots
Gust
knots
hPa Trend Height
m
Period
s
Dir
03/11:30pm 7.7 NE 3 5 1025.0 - 0.0 - - 10 - - - -
03/11:00pm 7.9 CALM 0 0 1025.5 - 0.0 - - 10 - - - -
03/10:30pm 8.0 CALM 0 0 1025.5 - 0.0 - - 10 - - - -
03/10:00pm 8.1 CALM 0 0 1025.7 - 0.0 - - 10 - - - -
03/09:30pm 8.7 CALM 0 0 1026.0 - 0.0 - - 10 - - - -
03/09:00pm 9.2 CALM 0 0 1026.1 F 0.0 Haze Mostly cloudy 18 - - - -
03/08:30pm 9.5 E 1 3 1026.0 - 0.0 - - 10 - - - -
03/08:00pm 9.7 E 4 5 1025.9 - 0.0 - - 10 - - - -
03/07:30pm 10.2 ESE 4 5 1026.0 - 0.0 - - 10 - - - -

Other Formats:

Comma delimited format used in spreadsheet applications
http://www.bom.gov.au/fwo/IDS60701/IDS60701.94672.axf

JavaScript Object Notation format (JSON) in row-major order
http://www.bom.gov.au/fwo/IDS60701/IDS60701.94672.json